createdAt,value
2023-02-28T00:01:33.756Z,98228.04
2023-02-28T00:04:02.513Z,98240.52
2023-02-28T00:06:33.924Z,98237.02
2023-02-28T00:09:01.879Z,98246.84
2023-02-28T00:11:30.313Z,98251.62
2023-02-28T00:14:01.082Z,98254.81
2023-02-28T00:16:28.898Z,98250.83
2023-02-28T00:18:56.678Z,98256.14
2023-02-28T00:21:26.385Z,98256.67
2023-02-28T00:23:54.224Z,98261.45
2023-02-28T00:26:22.152Z,98266.49
2023-02-28T00:28:53.651Z,98265.97
2023-02-28T00:31:21.567Z,98264.94
2023-02-28T00:33:49.441Z,98263.08
2023-02-28T00:36:17.179Z,98268.13
2023-02-28T00:38:46.558Z,98266.80
2023-02-28T00:41:14.110Z,98276.36
2023-02-28T00:43:41.994Z,98273.17
2023-02-28T00:46:11.647Z,98275.56
2023-02-28T00:48:39.417Z,98268.13
2023-02-28T00:51:07.002Z,98270.74
2023-02-28T00:53:34.836Z,98268.35
2023-02-28T00:56:04.604Z,98273.92
2023-02-28T00:58:32.787Z,98276.84
2023-02-28T01:01:00.942Z,98283.48
2023-02-28T01:03:29.192Z,98280.86
2023-02-28T01:05:58.114Z,98280.33
2023-02-28T01:08:26.547Z,98269.45
2023-02-28T01:10:54.251Z,98275.56
2023-02-28T01:13:23.977Z,98277.69
2023-02-28T01:15:55.888Z,98271.31
2023-02-28T01:18:23.581Z,98263.34
2023-02-28T01:20:52.866Z,98258.30
2023-02-28T01:23:23.846Z,98261.45
2023-02-28T01:25:52.422Z,98266.23
2023-02-28T01:28:20.528Z,98262.48
2023-02-28T01:30:51.783Z,98259.02
2023-02-28T01:33:19.754Z,98269.34
2023-02-28T01:35:47.332Z,98270.92
2023-02-28T01:38:22.837Z,98273.58
2023-02-28T01:40:47.539Z,98283.41
2023-02-28T01:43:25.706Z,98284.20
2023-02-28T01:45:57.865Z,98282.61
2023-02-28T01:48:33.580Z,98286.32
2023-02-28T01:51:06.596Z,98286.06
2023-02-28T01:53:39.591Z,98282.65
2023-02-28T01:56:09.749Z,98281.88
2023-02-28T01:58:38.001Z,98273.66
2023-02-28T02:01:05.874Z,98274.72
2023-02-28T02:03:36.264Z,98274.50
2023-02-28T02:06:06.320Z,98272.91
2023-02-28T02:08:33.918Z,98276.66
2023-02-28T02:11:03.229Z,98266.56
2023-02-28T02:13:53.404Z,98259.93
2023-02-28T02:16:47.447Z,98266.56
2023-02-28T02:19:55.644Z,98265.47
2023-02-28T02:22:46.904Z,98275.26
2023-02-28T02:25:41.097Z,98279.50
2023-02-28T02:28:29.259Z,98283.75
2023-02-28T02:31:20.842Z,98284.31
2023-02-28T02:34:09.216Z,98280.86
2023-02-28T02:37:06.569Z,98282.98
2023-02-28T02:39:51.281Z,98274.72
2023-02-28T02:42:39.510Z,98280.30
2023-02-28T02:45:24.335Z,98278.44
2023-02-28T02:47:52.634Z,98285.87
2023-02-28T02:50:31.425Z,98283.75
2023-02-28T02:53:02.340Z,98286.41
2023-02-28T02:55:34.953Z,98289.06
2023-02-28T02:58:07.308Z,98294.37
2023-02-28T03:00:39.557Z,98291.18
2023-02-28T03:03:10.516Z,98288.26
2023-02-28T03:05:50.895Z,98284.81
2023-02-28T03:08:18.833Z,98284.01
2023-02-28T03:10:52.740Z,98277.91
2023-02-28T03:13:42.514Z,98284.24
2023-02-28T03:16:35.105Z,98291.17
2023-02-28T03:19:27.774Z,98282.69
2023-02-28T03:22:35.531Z,98283.17
2023-02-28T03:25:35.015Z,98288.22
2023-02-28T03:28:29.248Z,98289.77
2023-02-28T03:31:09.661Z,98293.19
2023-02-28T03:34:06.851Z,98290.53
2023-02-28T03:36:54.017Z,98291.86
2023-02-28T03:39:27.024Z,98289.20
2023-02-28T03:42:00.415Z,98299.59
2023-02-28T03:44:47.530Z,98293.48
2023-02-28T03:47:20.606Z,98290.88
2023-02-28T03:49:53.749Z,98293.80
2023-02-28T03:52:26.543Z,98284.77
2023-02-28T03:55:00.702Z,98290.91
2023-02-28T03:58:07.058Z,98293.61
2023-02-28T04:00:42.868Z,98293.11
2023-02-28T04:03:10.508Z,98295.47
2023-02-28T04:05:56.580Z,98290.42
2023-02-28T04:08:24.188Z,98289.36
2023-02-28T04:11:21.390Z,98289.09
2023-02-28T04:13:49.098Z,98288.83
2023-02-28T04:16:33.366Z,98285.87
2023-02-28T04:18:46.805Z,98291.75
2023-02-28T04:21:14.767Z,98292.52
2023-02-28T04:23:42.307Z,98297.02
2023-02-28T04:26:10.018Z,98294.37
2023-02-28T04:28:38.985Z,98299.94
2023-02-28T04:31:06.952Z,98293.04
2023-02-28T04:33:34.908Z,98299.67
2023-02-28T04:36:07.706Z,98292.52
2023-02-28T04:38:38.418Z,98294.64
2023-02-28T04:41:06.894Z,98294.37
2023-02-28T04:43:34.659Z,98299.71
2023-02-28T04:46:05.317Z,98301.05
2023-02-28T04:48:37.001Z,98299.45
2023-02-28T04:51:09.196Z,98291.22
2023-02-28T04:53:39.569Z,98291.75
2023-02-28T04:56:09.473Z,98292.55
2023-02-28T04:58:37.937Z,98291.48
2023-02-28T05:01:25.948Z,98289.86
2023-02-28T05:03:56.782Z,98278.70
2023-02-28T05:06:27.690Z,98279.98
2023-02-28T05:08:55.878Z,98278.09
2023-02-28T05:11:33.347Z,98281.55
2023-02-28T05:14:02.900Z,98284.16
2023-02-28T05:16:30.992Z,98289.43
2023-02-28T05:18:59.131Z,98290.22
2023-02-28T05:21:36.156Z,98287.00
2023-02-28T05:24:08.478Z,98296.81
2023-02-28T05:26:40.161Z,98297.88
2023-02-28T05:29:08.280Z,98301.55
2023-02-28T05:31:36.726Z,98305.27
2023-02-28T05:34:04.707Z,98307.88
2023-02-28T05:36:32.426Z,98313.23
2023-02-28T05:39:00.938Z,98313.27
2023-02-28T05:41:29.284Z,98321.01
2023-02-28T05:44:00.231Z,98322.64
2023-02-28T05:46:28.324Z,98325.08
2023-02-28T05:48:58.062Z,98329.09
2023-02-28T05:51:25.700Z,98329.15
2023-02-28T05:53:53.736Z,98331.61
2023-02-28T05:56:22.582Z,98336.12
2023-02-28T05:58:50.237Z,98343.08
2023-02-28T06:01:35.989Z,98346.87
2023-02-28T06:04:05.295Z,98347.17
2023-02-28T06:06:36.913Z,98346.95
2023-02-28T06:09:05.898Z,98351.50
2023-02-28T06:11:34.221Z,98348.05
2023-02-28T06:14:03.210Z,98354.73
2023-02-28T06:16:33.454Z,98356.36
2023-02-28T06:19:04.348Z,98356.44
2023-02-28T06:21:32.873Z,98351.93
2023-02-28T06:24:00.941Z,98353.59
2023-02-28T06:26:29.205Z,98350.17
2023-02-28T06:28:59.665Z,98352.34
2023-02-28T06:31:30.513Z,98356.66
2023-02-28T06:34:00.497Z,98354.87
2023-02-28T06:36:28.332Z,98355.17
2023-02-28T06:38:56.588Z,98344.87
2023-02-28T06:41:26.767Z,98351.08
2023-02-28T06:43:54.792Z,98351.43
2023-02-28T06:46:23.585Z,98349.89
2023-02-28T06:48:51.690Z,98350.48
2023-02-28T06:51:22.955Z,98358.84
2023-02-28T06:53:51.949Z,98359.15
2023-02-28T06:56:21.548Z,98357.63
2023-02-28T06:58:52.164Z,98355.79
2023-02-28T07:01:20.382Z,98358.73
2023-02-28T07:03:50.378Z,98355.56
2023-02-28T07:06:19.039Z,98359.36
2023-02-28T07:08:46.725Z,98365.78
2023-02-28T07:11:24.206Z,98367.17
2023-02-28T07:13:56.912Z,98363.23
2023-02-28T07:16:27.331Z,98368.58
2023-02-28T07:18:56.310Z,98367.81
2023-02-28T07:21:25.227Z,98361.20
2023-02-28T07:23:54.587Z,98367.36
2023-02-28T07:26:26.153Z,98366.88
2023-02-28T07:28:54.945Z,98366.62
2023-02-28T07:31:27.152Z,98370.65
2023-02-28T07:34:01.096Z,98371.75
2023-02-28T07:36:29.438Z,98369.64
2023-02-28T07:38:57.276Z,98369.63
2023-02-28T07:41:27.376Z,98366.43
2023-02-28T07:44:52.157Z,98364.59
2023-02-28T07:47:25.553Z,98368.58
2023-02-28T07:49:53.504Z,98361.41
2023-02-28T07:52:21.215Z,98364.07
2023-02-28T07:54:56.880Z,98362.19
2023-02-28T07:57:26.014Z,98364.86
2023-02-28T07:59:54.151Z,98365.92
2023-02-28T08:02:28.179Z,98370.73
2023-02-28T08:04:56.842Z,98353.65
2023-02-28T08:07:24.604Z,98372.06
2023-02-28T08:09:52.271Z,98373.67
2023-02-28T08:12:20.453Z,98375.27
2023-02-28T08:14:48.292Z,98370.98
2023-02-28T08:17:16.275Z,98369.66
2023-02-28T08:19:46.756Z,98376.04
2023-02-28T08:22:14.672Z,98370.66
2023-02-28T08:24:44.191Z,98373.02
2023-02-28T08:27:12.098Z,98366.56
2023-02-28T08:29:47.763Z,98364.64
2023-02-28T08:32:29.694Z,98365.64
2023-02-28T08:34:51.787Z,98367.22
2023-02-28T08:37:19.712Z,98368.27
2023-02-28T08:39:47.621Z,98369.90
2023-02-28T08:42:15.329Z,98369.35
2023-02-28T08:44:43.150Z,98370.39
2023-02-28T08:47:11.666Z,98377.63
2023-02-28T08:49:39.682Z,98380.54
2023-02-28T08:52:07.908Z,98370.84
2023-02-28T08:54:37.062Z,98367.02
2023-02-28T08:57:04.895Z,98368.77
2023-02-28T08:59:33.022Z,98363.20
2023-02-28T09:02:00.974Z,98359.71
2023-02-28T09:04:30.466Z,98351.02
2023-02-28T09:06:59.435Z,98358.64
2023-02-28T09:09:27.381Z,98354.66
2023-02-28T09:11:57.306Z,98360.48
2023-02-28T09:14:29.420Z,98363.13
2023-02-28T09:17:00.715Z,98362.17
2023-02-28T09:19:28.347Z,98359.03
2023-02-28T09:21:56.339Z,98360.69
2023-02-28T09:24:24.263Z,98359.20
2023-02-28T09:27:03.887Z,98360.92
2023-02-28T09:29:21.609Z,98358.44
2023-02-28T09:31:50.214Z,98355.17
2023-02-28T09:34:18.073Z,98360.75
2023-02-28T09:36:46.912Z,98365.81
2023-02-28T09:39:17.819Z,98358.26
2023-02-28T09:41:50.533Z,98367.23
2023-02-28T09:44:35.512Z,98362.96
2023-02-28T09:47:20.757Z,98362.66
2023-02-28T09:49:49.994Z,98359.02
2023-02-28T09:52:26.266Z,98356.48
2023-02-28T09:54:54.098Z,98356.10
2023-02-28T09:57:41.129Z,98359.86
2023-02-28T10:00:23.241Z,98354.48
2023-02-28T10:03:11.727Z,98355.07
2023-02-28T10:05:57.255Z,98350.34
2023-02-28T10:08:36.655Z,98351.27
2023-02-28T10:11:09.627Z,98348.71
2023-02-28T10:13:51.064Z,98347.53
2023-02-28T10:16:31.092Z,98345.66
2023-02-28T10:19:26.879Z,98348.05
2023-02-28T10:25:26.822Z,98344.63
2023-02-28T10:28:01.123Z,98339.75
2023-02-28T10:30:30.041Z,98326.69
2023-02-28T10:32:58.085Z,98327.38
2023-02-28T10:35:27.489Z,98323.55
2023-02-28T10:37:58.840Z,98321.72
2023-02-28T10:40:32.046Z,98307.97
2023-02-28T10:43:17.411Z,98313.47
2023-02-28T10:45:59.774Z,98308.09
2023-02-28T10:48:38.120Z,98301.77
2023-02-28T10:51:16.326Z,98302.25
2023-02-28T10:54:01.534Z,98297.22
2023-02-28T10:56:24.898Z,98300.03
2023-02-28T10:58:57.746Z,98296.98
2023-02-28T11:01:42.154Z,98299.07
2023-02-28T11:04:29.975Z,98288.27
2023-02-28T11:07:04.076Z,98297.47
2023-02-28T11:09:37.208Z,98299.20
2023-02-28T11:12:09.534Z,98292.08
2023-02-28T11:14:45.612Z,98291.56
2023-02-28T11:17:24.900Z,98291.16
2023-02-28T11:19:59.984Z,98290.12
2023-02-28T11:22:32.232Z,98290.77
2023-02-28T11:25:18.112Z,98289.28
2023-02-28T11:27:53.198Z,98284.52
2023-02-28T11:30:41.388Z,98284.41
2023-02-28T11:33:51.423Z,98277.92
2023-02-28T11:36:29.172Z,98268.76
2023-02-28T11:39:08.524Z,98270.66
2023-02-28T11:41:54.307Z,98276.27
2023-02-28T11:44:35.347Z,98274.38
2023-02-28T11:47:45.827Z,98277.69
2023-02-28T11:50:52.627Z,98279.11
2023-02-28T11:53:27.343Z,98272.30
2023-02-28T11:56:11.791Z,98273.35
2023-02-28T11:58:57.513Z,98273.49
2023-02-28T12:02:05.545Z,98275.88
2023-02-28T12:05:00.161Z,98273.77
2023-02-28T12:07:39.134Z,98270.44
2023-02-28T12:10:26.623Z,98270.50
2023-02-28T12:13:30.528Z,98266.20
2023-02-28T12:16:29.991Z,98265.72
2023-02-28T12:19:12.696Z,98267.54
2023-02-28T12:22:23.051Z,98262.99
2023-02-28T12:24:56.376Z,98258.45
2023-02-28T12:27:28.215Z,98257.66
2023-02-28T12:30:22.991Z,98262.99
2023-02-28T12:33:05.397Z,98260.83
2023-02-28T12:35:41.819Z,98256.22
2023-02-28T12:38:23.611Z,98254.05
2023-02-28T12:41:07.538Z,98251.02
2023-02-28T12:43:45.785Z,98253.39
2023-02-28T12:46:42.371Z,98250.97
2023-02-28T12:49:15.638Z,98249.77
2023-02-28T12:51:47.853Z,98251.38
2023-02-28T12:54:21.144Z,98250.52
2023-02-28T12:57:20.773Z,98253.72
2023-02-28T12:59:57.036Z,98254.03
2023-02-28T13:03:02.267Z,98254.61
2023-02-28T13:06:07.024Z,98245.70
2023-02-28T13:09:01.066Z,98243.80
2023-02-28T13:11:43.253Z,98247.31
2023-02-28T13:14:35.194Z,98245.06
2023-02-28T13:17:13.627Z,98252.47
2023-02-28T13:19:55.486Z,98258.55
2023-02-28T13:22:43.659Z,98254.69
2023-02-28T13:25:44.983Z,98256.27
2023-02-28T13:28:15.183Z,98253.34
2023-02-28T13:30:59.541Z,98249.86
2023-02-28T13:33:40.179Z,98249.00
2023-02-28T13:36:23.396Z,98251.13
2023-02-28T13:39:05.908Z,98244.97
2023-02-28T13:41:44.892Z,98244.28
2023-02-28T13:44:27.444Z,98243.06
2023-02-28T13:47:02.172Z,98242.14
2023-02-28T13:49:37.553Z,98241.12
2023-02-28T13:52:18.233Z,98244.70
2023-02-28T13:55:21.344Z,98238.62
2023-02-28T13:58:06.704Z,98244.09
2023-02-28T14:01:09.839Z,98247.37
2023-02-28T14:04:02.146Z,98244.98
2023-02-28T14:06:38.066Z,98245.58
2023-02-28T14:09:26.447Z,98242.69
2023-02-28T14:11:56.232Z,98242.17
2023-02-28T14:14:41.319Z,98242.52
2023-02-28T14:17:16.136Z,98241.48
2023-02-28T14:19:50.016Z,98238.38
2023-02-28T14:22:49.155Z,98243.34
2023-02-28T14:25:40.771Z,98243.64
2023-02-28T14:28:28.759Z,98246.19
2023-02-28T14:31:12.087Z,98240.33
2023-02-28T14:34:19.529Z,98244.45
2023-02-28T14:36:49.459Z,98238.66
2023-02-28T14:39:23.742Z,98242.97
2023-02-28T14:41:52.472Z,98244.64
2023-02-28T14:44:28.643Z,98243.12
2023-02-28T14:47:00.141Z,98246.41
2023-02-28T14:49:40.073Z,98242.75
2023-02-28T14:52:22.464Z,98240.09
2023-02-28T14:54:57.481Z,98238.05
2023-02-28T14:57:32.507Z,98239.98
2023-02-28T15:00:30.266Z,98242.48
2023-02-28T15:03:01.305Z,98242.02
2023-02-28T15:05:35.434Z,98245.84
2023-02-28T15:08:17.105Z,98244.83
2023-02-28T15:10:55.301Z,98243.81
2023-02-28T15:13:26.598Z,98240.94
2023-02-28T15:16:03.501Z,98244.77
2023-02-28T15:18:45.593Z,98240.02
2023-02-28T15:21:19.169Z,98247.59
2023-02-28T15:24:00.638Z,98246.82
2023-02-28T15:26:36.862Z,98248.98
2023-02-28T15:29:12.874Z,98247.11
2023-02-28T15:31:57.349Z,98249.30
2023-02-28T15:34:28.516Z,98246.41
2023-02-28T15:36:54.500Z,98243.53
2023-02-28T15:39:27.990Z,98246.58
2023-02-28T15:42:14.117Z,98245.30
2023-02-28T15:44:42.062Z,98245.92
2023-02-28T15:47:25.630Z,98248.67
2023-02-28T15:49:59.254Z,98250.05
2023-02-28T15:52:42.632Z,98248.48
2023-02-28T15:55:24.312Z,98251.77
2023-02-28T15:57:58.434Z,98245.66
2023-02-28T16:00:29.291Z,98248.41
2023-02-28T16:02:57.403Z,98247.13
2023-02-28T16:05:32.278Z,98244.77
2023-02-28T16:08:14.177Z,98246.68
2023-02-28T16:10:42.081Z,98244.87
2023-02-28T16:13:14.354Z,98244.64
2023-02-28T16:15:45.020Z,98244.94
2023-02-28T16:18:13.676Z,98251.14
2023-02-28T16:20:42.297Z,98254.61
2023-02-28T16:23:10.371Z,98250.91
2023-02-28T16:25:41.621Z,98251.75
2023-02-28T16:28:23.989Z,98250.17
2023-02-28T16:30:54.109Z,98253.66
2023-02-28T16:33:22.202Z,98245.94
2023-02-28T16:35:54.676Z,98251.88
2023-02-28T16:38:24.250Z,98254.55
2023-02-28T16:40:54.884Z,98246.55
2023-02-28T16:43:26.878Z,98253.80
2023-02-28T16:46:01.390Z,98252.48
2023-02-28T16:48:31.385Z,98256.24
2023-02-28T16:50:59.630Z,98260.00
2023-02-28T16:53:27.512Z,98255.75
2023-02-28T16:55:55.365Z,98260.84
2023-02-28T16:58:25.491Z,98261.13
2023-02-28T17:00:54.010Z,98262.73
2023-02-28T17:03:33.840Z,98261.94
2023-02-28T17:05:58.827Z,98263.02
2023-02-28T17:08:29.780Z,98269.45
2023-02-28T17:10:58.699Z,98271.07
2023-02-28T17:13:27.390Z,98276.98
2023-02-28T17:15:56.504Z,98276.44
2023-02-28T17:18:24.700Z,98281.81
2023-02-28T17:20:56.604Z,98277.01
2023-02-28T17:23:26.586Z,98280.22
2023-02-28T17:25:57.896Z,98275.95
2023-02-28T17:28:29.086Z,98280.78
2023-02-28T17:30:58.582Z,98281.86
2023-02-28T17:33:26.609Z,98280.27
2023-02-28T17:35:54.433Z,98279.47
2023-02-28T17:38:23.471Z,98281.34
2023-02-28T17:40:53.390Z,98279.48
2023-02-28T17:43:21.251Z,98279.48
2023-02-28T17:45:48.969Z,98281.88
2023-02-28T17:48:17.359Z,98288.83
2023-02-28T17:50:45.335Z,98288.57
2023-02-28T17:53:13.377Z,98292.03
2023-02-28T17:55:41.111Z,98287.52
2023-02-28T17:58:13.059Z,98287.22
2023-02-28T18:00:41.557Z,98287.75
2023-02-28T18:03:10.094Z,98288.84
2023-02-28T18:05:38.219Z,98294.42
2023-02-28T18:08:06.267Z,98297.09
2023-02-28T18:10:33.915Z,98290.96
2023-02-28T18:13:01.632Z,98290.42
2023-02-28T18:15:29.963Z,98290.96
2023-02-28T18:17:58.053Z,98288.58
2023-02-28T18:20:26.467Z,98301.91
2023-02-28T18:22:54.518Z,98298.16
2023-02-28T18:25:22.985Z,98305.38
2023-02-28T18:27:53.702Z,98302.98
2023-02-28T18:30:22.158Z,98305.12
2023-02-28T18:32:50.248Z,98303.78
2023-02-28T18:35:20.873Z,98299.78
2023-02-28T18:37:49.148Z,98298.70
2023-02-28T18:40:17.378Z,98296.85
2023-02-28T18:42:48.569Z,98302.19
2023-02-28T18:45:19.509Z,98300.56
2023-02-28T18:47:47.928Z,98305.09
2023-02-28T18:50:16.293Z,98293.63
2023-02-28T18:52:44.278Z,98296.83
2023-02-28T18:55:13.974Z,98306.70
2023-02-28T18:57:42.097Z,98306.43
2023-02-28T19:00:12.625Z,98305.12
2023-02-28T19:02:43.088Z,98298.95
2023-02-28T19:05:15.965Z,98296.84
2023-02-28T19:07:43.863Z,98293.89
2023-02-28T19:10:13.190Z,98294.94
2023-02-28T19:12:45.900Z,98288.55
2023-02-28T19:15:13.880Z,98298.65
2023-02-28T19:17:47.436Z,98298.10
2023-02-28T19:20:26.267Z,98300.48
2023-02-28T19:23:01.748Z,98300.75
2023-02-28T19:25:29.644Z,98294.32
2023-02-28T19:28:01.132Z,98290.57
2023-02-28T19:30:34.426Z,98290.03
2023-02-28T19:33:02.575Z,98291.86
2023-02-28T19:35:30.646Z,98292.66
2023-02-28T19:37:59.822Z,98289.71
2023-02-28T19:40:33.339Z,98284.64
2023-02-28T19:43:04.268Z,98289.66
2023-02-28T19:45:37.485Z,98298.68
2023-02-28T19:48:18.004Z,98292.28
2023-02-28T19:50:46.323Z,98293.06
2023-02-28T19:53:16.266Z,98295.42
2023-02-28T19:55:47.288Z,98296.70
2023-02-28T19:58:17.436Z,98294.03
2023-02-28T20:00:47.032Z,98293.72
2023-02-28T20:03:17.634Z,98292.61
2023-02-28T20:05:46.767Z,98290.73
2023-02-28T20:08:14.669Z,98293.37
2023-02-28T20:10:42.572Z,98288.56
2023-02-28T20:13:10.711Z,98284.28
2023-02-28T20:15:38.821Z,98288.52
2023-02-28T20:18:10.260Z,98292.22
2023-02-28T20:20:40.370Z,98286.87
2023-02-28T20:23:08.754Z,98281.27
2023-02-28T20:25:40.501Z,98280.17
2023-02-28T20:28:08.593Z,98281.47
2023-02-28T20:30:42.197Z,98287.03
2023-02-28T20:33:10.319Z,98276.64
2023-02-28T20:35:41.532Z,98283.52
2023-02-28T20:38:11.418Z,98276.84
2023-02-28T20:40:39.259Z,98276.00
2023-02-28T20:43:08.979Z,98274.11
2023-02-28T20:45:37.040Z,98260.97
2023-02-28T20:48:04.866Z,98275.64
2023-02-28T20:50:33.516Z,98271.09
2023-02-28T20:53:01.497Z,98269.23
2023-02-28T20:55:29.919Z,98265.98
2023-02-28T20:57:58.077Z,98259.05
2023-02-28T21:00:26.244Z,98263.77
2023-02-28T21:02:54.114Z,98258.92
2023-02-28T21:05:22.326Z,98260.14
2023-02-28T21:07:50.746Z,98258.78
2023-02-28T21:10:18.889Z,98263.23
2023-02-28T21:12:50.358Z,98260.84
2023-02-28T21:15:18.203Z,98254.40
2023-02-28T21:17:47.685Z,98261.30
2023-02-28T21:20:17.913Z,98260.73
2023-02-28T21:22:45.493Z,98258.60
2023-02-28T21:25:14.309Z,98263.31
2023-02-28T21:27:42.843Z,98260.61
2023-02-28T21:30:11.530Z,98261.87
2023-02-28T21:32:39.810Z,98254.40
2023-02-28T21:35:08.478Z,98253.83
2023-02-28T21:37:39.252Z,98252.16
2023-02-28T21:40:08.520Z,98249.19
2023-02-28T21:42:36.793Z,98247.29
2023-02-28T21:45:07.663Z,98252.29
2023-02-28T21:47:35.740Z,98256.48
2023-02-28T21:50:03.705Z,98250.61
2023-02-28T21:52:31.497Z,98255.60
2023-02-28T21:54:59.523Z,98257.42
2023-02-28T21:57:27.539Z,98255.48
2023-02-28T21:59:56.513Z,98256.00
2023-02-28T22:02:24.477Z,98256.48
2023-02-28T22:04:52.982Z,98260.73
2023-02-28T22:07:20.786Z,98257.51
2023-02-28T22:09:48.888Z,98252.46
2023-02-28T22:12:17.128Z,98255.07
2023-02-28T22:14:45.791Z,98248.66
2023-02-28T22:17:13.810Z,98255.02
2023-02-28T22:19:41.869Z,98257.67
2023-02-28T22:22:12.593Z,98259.48
2023-02-28T22:24:40.475Z,98261.02
2023-02-28T22:27:09.098Z,98264.16
2023-02-28T22:29:37.845Z,98264.11
2023-02-28T22:32:09.608Z,98263.31
2023-02-28T22:34:37.978Z,98264.59
2023-02-28T22:37:06.697Z,98261.63
2023-02-28T22:39:34.721Z,98263.20
2023-02-28T22:42:02.852Z,98267.94
2023-02-28T22:44:33.522Z,98267.66
2023-02-28T22:47:01.697Z,98265.50
2023-02-28T22:49:29.635Z,98268.63
2023-02-28T22:51:57.518Z,98281.56
2023-02-28T22:54:27.133Z,98281.23
2023-02-28T22:56:55.113Z,98278.84
2023-02-28T22:59:22.871Z,98281.19
2023-02-28T23:01:50.718Z,98276.42
2023-02-28T23:04:19.370Z,98281.19
2023-02-28T23:06:47.621Z,98283.34
2023-02-28T23:09:20.975Z,98282.82
2023-02-28T23:11:51.260Z,98289.65
2023-02-28T23:14:21.115Z,98287.75
2023-02-28T23:16:55.753Z,98286.16
2023-02-28T23:19:31.775Z,98286.37
2023-02-28T23:22:01.569Z,98285.83
2023-02-28T23:24:33.626Z,98292.16
2023-02-28T23:27:05.247Z,98286.58
2023-02-28T23:29:34.651Z,98290.83
2023-02-28T23:32:03.428Z,98290.28
2023-02-28T23:34:31.645Z,98292.08
2023-02-28T23:37:01.258Z,98282.48
2023-02-28T23:39:31.185Z,98287.52
2023-02-28T23:41:59.668Z,98290.44
2023-02-28T23:44:27.562Z,98289.64
2023-02-28T23:46:55.571Z,98296.26
2023-02-28T23:49:23.263Z,98294.88
2023-02-28T23:51:53.844Z,98291.66
2023-02-28T23:54:21.676Z,98291.64
2023-02-28T23:56:50.084Z,98294.51
2023-02-28T23:59:17.924Z,98289.21
